sensor_id;sensor_type;location;lat;lon;timestamp;P1;durP1;ratioP1;P2;durP2;ratioP2
9330;SDS011;4704;50.470;12.072;2023-06-26T00:01:04;4.53;;;4.22;;
9330;SDS011;4704;50.470;12.072;2023-06-26T00:03:33;4.55;;;4.15;;
9330;SDS011;4704;50.470;12.072;2023-06-26T00:06:02;4.40;;;4.00;;
9330;SDS011;4704;50.470;12.072;2023-06-26T00:08:29;4.40;;;4.10;;
9330;SDS011;4704;50.470;12.072;2023-06-26T00:10:57;4.45;;;4.15;;
9330;SDS011;4704;50.470;12.072;2023-06-26T00:13:25;4.50;;;4.20;;
9330;SDS011;4704;50.470;12.072;2023-06-26T00:15:52;4.18;;;3.88;;
9330;SDS011;4704;50.470;12.072;2023-06-26T00:18:20;4.78;;;4.47;;
9330;SDS011;4704;50.470;12.072;2023-06-26T00:20:48;4.90;;;4.50;;
9330;SDS011;4704;50.470;12.072;2023-06-26T00:23:17;4.30;;;4.00;;
9330;SDS011;4704;50.470;12.072;2023-06-26T00:25:45;4.40;;;4.10;;
9330;SDS011;4704;50.470;12.072;2023-06-26T00:28:12;4.50;;;4.20;;
9330;SDS011;4704;50.470;12.072;2023-06-26T00:30:40;4.70;;;4.40;;
9330;SDS011;4704;50.470;12.072;2023-06-26T00:33:07;4.15;;;3.72;;
9330;SDS011;4704;50.470;12.072;2023-06-26T00:35:35;4.82;;;4.30;;
9330;SDS011;4704;50.470;12.072;2023-06-26T00:38:03;4.53;;;4.18;;
9330;SDS011;4704;50.470;12.072;2023-06-26T00:40:32;4.78;;;4.20;;
9330;SDS011;4704;50.470;12.072;2023-06-26T00:43:00;4.40;;;4.10;;
9330;SDS011;4704;50.470;12.072;2023-06-26T00:45:27;4.07;;;3.78;;
9330;SDS011;4704;50.470;12.072;2023-06-26T00:47:55;4.43;;;4.03;;
9330;SDS011;4704;50.470;12.072;2023-06-26T00:50:23;4.72;;;4.22;;
9330;SDS011;4704;50.470;12.072;2023-06-26T00:52:51;4.50;;;4.20;;
9330;SDS011;4704;50.470;12.072;2023-06-26T00:55:20;4.43;;;4.10;;
9330;SDS011;4704;50.470;12.072;2023-06-26T00:57:49;4.43;;;4.13;;
9330;SDS011;4704;50.470;12.072;2023-06-26T01:00:17;5.03;;;4.28;;
9330;SDS011;4704;50.470;12.072;2023-06-26T01:02:44;4.38;;;4.07;;
9330;SDS011;4704;50.470;12.072;2023-06-26T01:05:12;5.45;;;4.43;;
9330;SDS011;4704;50.470;12.072;2023-06-26T01:07:46;4.45;;;4.15;;
9330;SDS011;4704;50.470;12.072;2023-06-26T01:10:14;4.57;;;4.15;;
9330;SDS011;4704;50.470;12.072;2023-06-26T01:12:42;4.50;;;4.10;;
9330;SDS011;4704;50.470;12.072;2023-06-26T01:15:11;4.47;;;4.18;;
9330;SDS011;4704;50.470;12.072;2023-06-26T01:17:39;4.43;;;4.13;;
9330;SDS011;4704;50.470;12.072;2023-06-26T01:20:10;4.70;;;4.40;;
9330;SDS011;4704;50.470;12.072;2023-06-26T01:22:56;4.65;;;4.35;;
9330;SDS011;4704;50.470;12.072;2023-06-26T01:25:28;4.20;;;3.90;;
9330;SDS011;4704;50.470;12.072;2023-06-26T01:28:05;4.85;;;4.45;;
9330;SDS011;4704;50.470;12.072;2023-06-26T01:30:34;4.40;;;4.10;;
9330;SDS011;4704;50.470;12.072;2023-06-26T01:33:02;4.30;;;4.00;;
9330;SDS011;4704;50.470;12.072;2023-06-26T01:35:30;4.25;;;3.95;;
9330;SDS011;4704;50.470;12.072;2023-06-26T01:38:11;4.00;;;3.70;;
9330;SDS011;4704;50.470;12.072;2023-06-26T01:40:39;4.20;;;3.90;;
9330;SDS011;4704;50.470;12.072;2023-06-26T01:43:18;4.63;;;4.32;;
9330;SDS011;4704;50.470;12.072;2023-06-26T01:45:50;4.55;;;4.15;;
9330;SDS011;4704;50.470;12.072;2023-06-26T01:48:20;4.80;;;4.20;;
9330;SDS011;4704;50.470;12.072;2023-06-26T01:50:51;4.57;;;4.18;;
9330;SDS011;4704;50.470;12.072;2023-06-26T01:53:19;4.60;;;4.20;;
9330;SDS011;4704;50.470;12.072;2023-06-26T01:55:51;4.15;;;3.85;;
9330;SDS011;4704;50.470;12.072;2023-06-26T01:58:22;4.68;;;4.28;;
9330;SDS011;4704;50.470;12.072;2023-06-26T02:00:50;4.60;;;4.30;;
9330;SDS011;4704;50.470;12.072;2023-06-26T02:03:18;4.60;;;4.20;;
9330;SDS011;4704;50.470;12.072;2023-06-26T02:05:45;4.30;;;4.00;;
9330;SDS011;4704;50.470;12.072;2023-06-26T02:08:13;4.60;;;4.20;;
9330;SDS011;4704;50.470;12.072;2023-06-26T02:10:41;4.47;;;4.18;;
9330;SDS011;4704;50.470;12.072;2023-06-26T02:13:09;4.63;;;4.22;;
9330;SDS011;4704;50.470;12.072;2023-06-26T02:15:38;4.28;;;3.97;;
9330;SDS011;4704;50.470;12.072;2023-06-26T02:18:06;4.78;;;4.32;;
9330;SDS011;4704;50.470;12.072;2023-06-26T02:20:34;4.72;;;4.32;;
9330;SDS011;4704;50.470;12.072;2023-06-26T02:23:01;6.40;;;4.30;;
9330;SDS011;4704;50.470;12.072;2023-06-26T02:25:29;4.45;;;4.15;;
9330;SDS011;4704;50.470;12.072;2023-06-26T02:27:57;4.63;;;4.22;;
9330;SDS011;4704;50.470;12.072;2023-06-26T02:30:24;4.80;;;4.40;;
9330;SDS011;4704;50.470;12.072;2023-06-26T02:32:53;4.60;;;4.30;;
9330;SDS011;4704;50.470;12.072;2023-06-26T02:35:21;5.10;;;4.80;;
9330;SDS011;4704;50.470;12.072;2023-06-26T02:37:49;4.50;;;4.20;;
9330;SDS011;4704;50.470;12.072;2023-06-26T02:40:16;4.97;;;4.50;;
9330;SDS011;4704;50.470;12.072;2023-06-26T02:42:44;4.82;;;4.45;;
9330;SDS011;4704;50.470;12.072;2023-06-26T02:45:12;5.00;;;4.70;;
9330;SDS011;4704;50.470;12.072;2023-06-26T02:47:39;4.70;;;4.40;;
9330;SDS011;4704;50.470;12.072;2023-06-26T02:50:09;4.60;;;4.30;;
9330;SDS011;4704;50.470;12.072;2023-06-26T02:52:36;4.90;;;4.50;;
9330;SDS011;4704;50.470;12.072;2023-06-26T02:55:04;4.75;;;4.45;;
9330;SDS011;4704;50.470;12.072;2023-06-26T02:57:32;4.80;;;4.50;;
9330;SDS011;4704;50.470;12.072;2023-06-26T03:00:01;4.78;;;4.38;;
9330;SDS011;4704;50.470;12.072;2023-06-26T03:02:32;5.00;;;4.60;;
9330;SDS011;4704;50.470;12.072;2023-06-26T03:04:59;4.30;;;4.00;;
9330;SDS011;4704;50.470;12.072;2023-06-26T03:07:29;4.35;;;4.05;;
9330;SDS011;4704;50.470;12.072;2023-06-26T03:09:57;4.80;;;4.40;;
9330;SDS011;4704;50.470;12.072;2023-06-26T03:12:26;4.80;;;4.50;;
9330;SDS011;4704;50.470;12.072;2023-06-26T03:14:53;4.72;;;4.32;;
9330;SDS011;4704;50.470;12.072;2023-06-26T03:17:21;4.57;;;4.28;;
9330;SDS011;4704;50.470;12.072;2023-06-26T03:19:50;4.60;;;4.20;;
9330;SDS011;4704;50.470;12.072;2023-06-26T03:22:18;4.32;;;4.03;;
9330;SDS011;4704;50.470;12.072;2023-06-26T03:24:47;4.35;;;3.95;;
9330;SDS011;4704;50.470;12.072;2023-06-26T03:27:15;5.38;;;4.88;;
9330;SDS011;4704;50.470;12.072;2023-06-26T03:29:43;4.68;;;4.38;;
9330;SDS011;4704;50.470;12.072;2023-06-26T03:32:10;4.38;;;4.07;;
9330;SDS011;4704;50.470;12.072;2023-06-26T03:34:38;4.50;;;4.20;;
9330;SDS011;4704;50.470;12.072;2023-06-26T03:37:06;6.38;;;4.57;;
9330;SDS011;4704;50.470;12.072;2023-06-26T03:39:33;4.75;;;4.35;;
9330;SDS011;4704;50.470;12.072;2023-06-26T03:42:03;4.65;;;4.30;;
9330;SDS011;4704;50.470;12.072;2023-06-26T03:44:30;4.47;;;4.07;;
9330;SDS011;4704;50.470;12.072;2023-06-26T03:46:58;4.50;;;4.20;;
9330;SDS011;4704;50.470;12.072;2023-06-26T03:49:26;4.53;;;4.18;;
9330;SDS011;4704;50.470;12.072;2023-06-26T03:51:53;4.60;;;4.20;;
9330;SDS011;4704;50.470;12.072;2023-06-26T03:54:21;4.50;;;4.20;;
9330;SDS011;4704;50.470;12.072;2023-06-26T03:56:49;4.60;;;4.30;;
9330;SDS011;4704;50.470;12.072;2023-06-26T03:59:18;4.10;;;3.80;;
9330;SDS011;4704;50.470;12.072;2023-06-26T04:01:45;4.25;;;3.95;;
9330;SDS011;4704;50.470;12.072;2023-06-26T04:04:12;4.20;;;3.90;;
9330;SDS011;4704;50.470;12.072;2023-06-26T04:06:40;4.63;;;4.22;;
9330;SDS011;4704;50.470;12.072;2023-06-26T04:09:07;4.35;;;4.03;;
9330;SDS011;4704;50.470;12.072;2023-06-26T04:11:35;4.43;;;4.13;;
9330;SDS011;4704;50.470;12.072;2023-06-26T04:14:02;4.53;;;4.22;;
9330;SDS011;4704;50.470;12.072;2023-06-26T04:16:31;4.28;;;3.97;;
9330;SDS011;4704;50.470;12.072;2023-06-26T04:18:58;4.28;;;3.97;;
9330;SDS011;4704;50.470;12.072;2023-06-26T04:21:27;4.63;;;4.22;;
9330;SDS011;4704;50.470;12.072;2023-06-26T04:23:55;4.50;;;4.20;;
9330;SDS011;4704;50.470;12.072;2023-06-26T04:26:22;4.90;;;4.60;;
9330;SDS011;4704;50.470;12.072;2023-06-26T04:28:50;4.88;;;4.43;;
9330;SDS011;4704;50.470;12.072;2023-06-26T04:31:18;6.00;;;4.53;;
9330;SDS011;4704;50.470;12.072;2023-06-26T04:33:47;5.10;;;4.70;;
9330;SDS011;4704;50.470;12.072;2023-06-26T04:36:16;4.97;;;4.47;;
9330;SDS011;4704;50.470;12.072;2023-06-26T04:38:44;4.90;;;4.55;;
9330;SDS011;4704;50.470;12.072;2023-06-26T04:41:13;4.70;;;4.40;;
9330;SDS011;4704;50.470;12.072;2023-06-26T04:43:40;5.13;;;4.72;;
9330;SDS011;4704;50.470;12.072;2023-06-26T04:46:08;4.90;;;4.60;;
9330;SDS011;4704;50.470;12.072;2023-06-26T04:48:35;5.38;;;4.97;;
9330;SDS011;4704;50.470;12.072;2023-06-26T04:51:04;5.25;;;4.85;;
9330;SDS011;4704;50.470;12.072;2023-06-26T04:53:31;5.25;;;4.85;;
9330;SDS011;4704;50.470;12.072;2023-06-26T04:55:59;6.03;;;5.63;;
9330;SDS011;4704;50.470;12.072;2023-06-26T04:58:26;5.38;;;4.97;;
9330;SDS011;4704;50.470;12.072;2023-06-26T05:00:54;5.38;;;4.97;;
9330;SDS011;4704;50.470;12.072;2023-06-26T05:03:21;5.35;;;4.95;;
9330;SDS011;4704;50.470;12.072;2023-06-26T05:05:49;5.20;;;4.80;;
9330;SDS011;4704;50.470;12.072;2023-06-26T05:08:20;5.60;;;5.10;;
9330;SDS011;4704;50.470;12.072;2023-06-26T05:10:48;5.40;;;5.00;;
9330;SDS011;4704;50.470;12.072;2023-06-26T05:13:16;5.13;;;4.72;;
9330;SDS011;4704;50.470;12.072;2023-06-26T05:15:45;5.57;;;5.18;;
9330;SDS011;4704;50.470;12.072;2023-06-26T05:18:13;5.63;;;5.22;;
9330;SDS011;4704;50.470;12.072;2023-06-26T05:20:40;5.80;;;5.30;;
9330;SDS011;4704;50.470;12.072;2023-06-26T05:23:08;6.07;;;4.95;;
9330;SDS011;4704;50.470;12.072;2023-06-26T05:25:39;5.80;;;5.30;;
9330;SDS011;4704;50.470;12.072;2023-06-26T05:28:07;6.28;;;5.78;;
9330;SDS011;4704;50.470;12.072;2023-06-26T05:30:36;5.60;;;5.10;;
9330;SDS011;4704;50.470;12.072;2023-06-26T05:33:03;6.03;;;5.50;;
9330;SDS011;4704;50.470;12.072;2023-06-26T05:35:31;6.43;;;5.72;;
9330;SDS011;4704;50.470;12.072;2023-06-26T05:37:59;5.75;;;5.35;;
9330;SDS011;4704;50.470;12.072;2023-06-26T05:40:26;5.90;;;5.30;;
9330;SDS011;4704;50.470;12.072;2023-06-26T05:42:55;6.03;;;5.57;;
9330;SDS011;4704;50.470;12.072;2023-06-26T05:45:23;5.68;;;5.25;;
9330;SDS011;4704;50.470;12.072;2023-06-26T05:47:50;5.53;;;5.03;;
9330;SDS011;4704;50.470;12.072;2023-06-26T05:50:18;5.78;;;5.28;;
9330;SDS011;4704;50.470;12.072;2023-06-26T05:52:46;5.72;;;5.22;;
9330;SDS011;4704;50.470;12.072;2023-06-26T05:55:14;6.00;;;5.40;;
9330;SDS011;4704;50.470;12.072;2023-06-26T05:57:42;5.88;;;5.35;;
9330;SDS011;4704;50.470;12.072;2023-06-26T06:00:11;6.00;;;5.50;;
9330;SDS011;4704;50.470;12.072;2023-06-26T06:02:40;5.97;;;5.57;;
9330;SDS011;4704;50.470;12.072;2023-06-26T06:05:07;5.80;;;5.38;;
9330;SDS011;4704;50.470;12.072;2023-06-26T06:07:35;6.15;;;5.15;;
9330;SDS011;4704;50.470;12.072;2023-06-26T06:10:03;6.00;;;5.50;;
9330;SDS011;4704;50.470;12.072;2023-06-26T06:12:31;6.00;;;5.50;;
9330;SDS011;4704;50.470;12.072;2023-06-26T06:14:58;5.95;;;5.45;;
9330;SDS011;4704;50.470;12.072;2023-06-26T06:17:27;6.20;;;5.70;;
9330;SDS011;4704;50.470;12.072;2023-06-26T06:19:55;6.13;;;5.63;;
9330;SDS011;4704;50.470;12.072;2023-06-26T06:22:22;5.90;;;5.40;;
9330;SDS011;4704;50.470;12.072;2023-06-26T06:24:50;6.03;;;5.63;;
9330;SDS011;4704;50.470;12.072;2023-06-26T06:27:17;6.40;;;5.90;;
9330;SDS011;4704;50.470;12.072;2023-06-26T06:29:44;6.45;;;5.95;;
9330;SDS011;4704;50.470;12.072;2023-06-26T06:32:13;6.07;;;5.57;;
9330;SDS011;4704;50.470;12.072;2023-06-26T06:34:41;6.60;;;6.10;;
9330;SDS011;4704;50.470;12.072;2023-06-26T06:37:09;6.68;;;6.18;;
9330;SDS011;4704;50.470;12.072;2023-06-26T06:39:36;6.60;;;6.00;;
9330;SDS011;4704;50.470;12.072;2023-06-26T06:42:04;6.80;;;6.13;;
9330;SDS011;4704;50.470;12.072;2023-06-26T06:44:31;6.65;;;6.13;;
9330;SDS011;4704;50.470;12.072;2023-06-26T06:46:59;7.22;;;6.63;;
9330;SDS011;4704;50.470;12.072;2023-06-26T06:49:26;7.90;;;7.20;;
9330;SDS011;4704;50.470;12.072;2023-06-26T06:51:55;12.10;;;8.88;;
9330;SDS011;4704;50.470;12.072;2023-06-26T06:54:25;13.50;;;9.23;;
9330;SDS011;4704;50.470;12.072;2023-06-26T06:56:52;11.18;;;8.93;;
9330;SDS011;4704;50.470;12.072;2023-06-26T06:59:20;11.32;;;8.75;;
9330;SDS011;4704;50.470;12.072;2023-06-26T07:01:47;9.40;;;7.88;;
9330;SDS011;4704;50.470;12.072;2023-06-26T07:04:14;9.38;;;7.57;;
9330;SDS011;4704;50.470;12.072;2023-06-26T07:06:42;8.05;;;7.25;;
9330;SDS011;4704;50.470;12.072;2023-06-26T07:09:11;8.10;;;7.40;;
9330;SDS011;4704;50.470;12.072;2023-06-26T07:11:39;7.90;;;7.20;;
9330;SDS011;4704;50.470;12.072;2023-06-26T07:14:07;7.85;;;7.15;;
9330;SDS011;4704;50.470;12.072;2023-06-26T07:16:34;7.55;;;6.95;;
9330;SDS011;4704;50.470;12.072;2023-06-26T07:19:02;7.68;;;6.97;;
9330;SDS011;4704;50.470;12.072;2023-06-26T07:21:29;7.28;;;6.57;;
9330;SDS011;4704;50.470;12.072;2023-06-26T07:23:57;6.88;;;6.28;;
9330;SDS011;4704;50.470;12.072;2023-06-26T07:26:25;7.30;;;6.70;;
9330;SDS011;4704;50.470;12.072;2023-06-26T07:28:53;7.60;;;7.00;;
9330;SDS011;4704;50.470;12.072;2023-06-26T07:31:21;7.15;;;6.57;;
9330;SDS011;4704;50.470;12.072;2023-06-26T07:33:49;7.55;;;6.85;;
9330;SDS011;4704;50.470;12.072;2023-06-26T07:36:17;7.97;;;7.28;;
9330;SDS011;4704;50.470;12.072;2023-06-26T07:38:44;7.00;;;6.40;;
9330;SDS011;4704;50.470;12.072;2023-06-26T07:41:11;6.85;;;6.32;;
9330;SDS011;4704;50.470;12.072;2023-06-26T07:43:41;7.18;;;6.57;;
9330;SDS011;4704;50.470;12.072;2023-06-26T07:46:08;7.10;;;6.40;;
9330;SDS011;4704;50.470;12.072;2023-06-26T07:48:35;7.10;;;6.53;;
9330;SDS011;4704;50.470;12.072;2023-06-26T07:51:03;7.30;;;6.70;;
9330;SDS011;4704;50.470;12.072;2023-06-26T07:53:30;7.90;;;7.20;;
9330;SDS011;4704;50.470;12.072;2023-06-26T07:55:58;7.28;;;6.68;;
9330;SDS011;4704;50.470;12.072;2023-06-26T07:58:25;7.45;;;6.85;;
9330;SDS011;4704;50.470;12.072;2023-06-26T08:00:54;7.60;;;7.00;;
9330;SDS011;4704;50.470;12.072;2023-06-26T08:03:22;7.30;;;6.70;;
9330;SDS011;4704;50.470;12.072;2023-06-26T08:05:49;7.57;;;6.97;;
9330;SDS011;4704;50.470;12.072;2023-06-26T08:08:16;7.50;;;6.90;;
9330;SDS011;4704;50.470;12.072;2023-06-26T08:10:44;7.38;;;6.75;;
9330;SDS011;4704;50.470;12.072;2023-06-26T08:13:11;7.70;;;7.10;;
9330;SDS011;4704;50.470;12.072;2023-06-26T08:15:39;7.20;;;6.60;;
9330;SDS011;4704;50.470;12.072;2023-06-26T08:18:08;7.45;;;6.85;;
9330;SDS011;4704;50.470;12.072;2023-06-26T08:20:35;7.55;;;6.90;;
9330;SDS011;4704;50.470;12.072;2023-06-26T08:23:03;7.82;;;6.97;;
9330;SDS011;4704;50.470;12.072;2023-06-26T08:25:31;7.57;;;6.88;;
9330;SDS011;4704;50.470;12.072;2023-06-26T08:27:58;7.47;;;6.88;;
9330;SDS011;4704;50.470;12.072;2023-06-26T08:30:26;7.70;;;7.05;;
9330;SDS011;4704;50.470;12.072;2023-06-26T08:32:53;7.85;;;7.20;;
9330;SDS011;4704;50.470;12.072;2023-06-26T08:35:22;7.63;;;6.93;;
9330;SDS011;4704;50.470;12.072;2023-06-26T08:37:49;9.18;;;7.10;;
9330;SDS011;4704;50.470;12.072;2023-06-26T08:40:19;7.50;;;6.82;;
9330;SDS011;4704;50.470;12.072;2023-06-26T08:42:48;7.78;;;7.07;;
9330;SDS011;4704;50.470;12.072;2023-06-26T08:45:18;7.60;;;6.90;;
9330;SDS011;4704;50.470;12.072;2023-06-26T08:47:45;7.03;;;6.45;;
9330;SDS011;4704;50.470;12.072;2023-06-26T08:50:15;8.10;;;7.30;;
9330;SDS011;4704;50.470;12.072;2023-06-26T08:52:49;7.43;;;6.72;;
9330;SDS011;4704;50.470;12.072;2023-06-26T08:55:17;7.95;;;7.25;;
9330;SDS011;4704;50.470;12.072;2023-06-26T08:57:47;7.75;;;7.10;;
9330;SDS011;4704;50.470;12.072;2023-06-26T09:00:14;8.10;;;7.15;;
9330;SDS011;4704;50.470;12.072;2023-06-26T09:02:42;6.80;;;6.20;;
9330;SDS011;4704;50.470;12.072;2023-06-26T09:05:10;7.90;;;7.18;;
9330;SDS011;4704;50.470;12.072;2023-06-26T09:07:38;7.63;;;7.03;;
9330;SDS011;4704;50.470;12.072;2023-06-26T09:10:08;7.78;;;7.15;;
9330;SDS011;4704;50.470;12.072;2023-06-26T09:12:36;7.32;;;6.72;;
9330;SDS011;4704;50.470;12.072;2023-06-26T09:15:04;7.28;;;6.63;;
9330;SDS011;4704;50.470;12.072;2023-06-26T09:17:33;7.30;;;6.60;;
9330;SDS011;4704;50.470;12.072;2023-06-26T09:20:01;7.63;;;6.93;;
9330;SDS011;4704;50.470;12.072;2023-06-26T09:22:28;7.90;;;7.20;;
9330;SDS011;4704;50.470;12.072;2023-06-26T09:24:56;7.32;;;6.72;;
9330;SDS011;4704;50.470;12.072;2023-06-26T09:27:25;8.32;;;7.53;;
9330;SDS011;4704;50.470;12.072;2023-06-26T09:29:53;7.80;;;7.20;;
9330;SDS011;4704;50.470;12.072;2023-06-26T09:32:21;7.72;;;7.13;;
9330;SDS011;4704;50.470;12.072;2023-06-26T09:34:53;7.68;;;7.00;;
9330;SDS011;4704;50.470;12.072;2023-06-26T09:37:22;8.15;;;7.47;;
9330;SDS011;4704;50.470;12.072;2023-06-26T09:39:50;7.65;;;7.05;;
9330;SDS011;4704;50.470;12.072;2023-06-26T09:42:18;7.45;;;6.85;;
9330;SDS011;4704;50.470;12.072;2023-06-26T09:44:47;7.45;;;6.85;;
9330;SDS011;4704;50.470;12.072;2023-06-26T09:47:16;7.53;;;6.93;;
9330;SDS011;4704;50.470;12.072;2023-06-26T09:49:44;7.47;;;6.88;;
9330;SDS011;4704;50.470;12.072;2023-06-26T09:52:13;7.50;;;6.82;;
9330;SDS011;4704;50.470;12.072;2023-06-26T09:54:41;7.32;;;6.72;;
9330;SDS011;4704;50.470;12.072;2023-06-26T09:57:10;7.50;;;6.90;;
9330;SDS011;4704;50.470;12.072;2023-06-26T09:59:38;7.88;;;7.18;;
9330;SDS011;4704;50.470;12.072;2023-06-26T10:02:08;7.55;;;6.97;;
9330;SDS011;4704;50.470;12.072;2023-06-26T10:04:37;8.23;;;7.53;;
9330;SDS011;4704;50.470;12.072;2023-06-26T10:07:05;6.97;;;6.47;;
9330;SDS011;4704;50.470;12.072;2023-06-26T10:09:33;7.25;;;6.65;;
9330;SDS011;4704;50.470;12.072;2023-06-26T10:12:02;7.05;;;6.45;;
9330;SDS011;4704;50.470;12.072;2023-06-26T10:14:32;7.45;;;6.85;;
9330;SDS011;4704;50.470;12.072;2023-06-26T10:17:01;7.13;;;6.55;;
9330;SDS011;4704;50.470;12.072;2023-06-26T10:19:32;6.93;;;6.43;;
9330;SDS011;4704;50.470;12.072;2023-06-26T10:22:00;7.50;;;6.90;;
9330;SDS011;4704;50.470;12.072;2023-06-26T10:24:29;7.07;;;6.50;;
9330;SDS011;4704;50.470;12.072;2023-06-26T10:26:57;7.50;;;6.82;;
9330;SDS011;4704;50.470;12.072;2023-06-26T10:29:26;6.93;;;6.43;;
9330;SDS011;4704;50.470;12.072;2023-06-26T10:31:55;6.60;;;6.10;;
9330;SDS011;4704;50.470;12.072;2023-06-26T10:34:23;7.22;;;6.68;;
9330;SDS011;4704;50.470;12.072;2023-06-26T10:36:59;6.53;;;6.03;;
9330;SDS011;4704;50.470;12.072;2023-06-26T10:39:27;6.95;;;6.43;;
9330;SDS011;4704;50.470;12.072;2023-06-26T10:41:55;7.40;;;6.80;;
9330;SDS011;4704;50.470;12.072;2023-06-26T10:44:22;7.88;;;7.20;;
9330;SDS011;4704;50.470;12.072;2023-06-26T10:46:50;6.88;;;6.38;;
9330;SDS011;4704;50.470;12.072;2023-06-26T10:49:18;7.75;;;7.15;;
9330;SDS011;4704;50.470;12.072;2023-06-26T10:51:46;7.00;;;6.50;;
9330;SDS011;4704;50.470;12.072;2023-06-26T10:54:16;7.60;;;7.00;;
9330;SDS011;4704;50.470;12.072;2023-06-26T10:56:44;7.88;;;7.18;;
9330;SDS011;4704;50.470;12.072;2023-06-26T10:59:15;7.47;;;6.88;;
9330;SDS011;4704;50.470;12.072;2023-06-26T11:01:43;7.57;;;6.88;;
9330;SDS011;4704;50.470;12.072;2023-06-26T11:04:12;7.43;;;6.82;;
9330;SDS011;4704;50.470;12.072;2023-06-26T11:06:41;7.82;;;7.13;;
9330;SDS011;4704;50.470;12.072;2023-06-26T11:09:17;7.50;;;6.95;;
9330;SDS011;4704;50.470;12.072;2023-06-26T11:11:59;7.78;;;7.10;;
9330;SDS011;4704;50.470;12.072;2023-06-26T11:14:36;7.70;;;7.00;;
9330;SDS011;4704;50.470;12.072;2023-06-26T11:17:03;7.50;;;6.90;;
9330;SDS011;4704;50.470;12.072;2023-06-26T11:19:31;7.32;;;6.72;;
9330;SDS011;4704;50.470;12.072;2023-06-26T11:21:59;6.70;;;6.20;;
9330;SDS011;4704;50.470;12.072;2023-06-26T11:24:28;7.55;;;6.95;;
9330;SDS011;4704;50.470;12.072;2023-06-26T11:27:02;10.20;;;6.90;;
9330;SDS011;4704;50.470;12.072;2023-06-26T11:29:30;6.90;;;6.40;;
9330;SDS011;4704;50.470;12.072;2023-06-26T11:32:01;7.28;;;6.60;;
9330;SDS011;4704;50.470;12.072;2023-06-26T11:34:30;7.10;;;6.50;;
9330;SDS011;4704;50.470;12.072;2023-06-26T11:36:58;7.07;;;6.50;;
9330;SDS011;4704;50.470;12.072;2023-06-26T11:39:30;7.03;;;6.43;;
9330;SDS011;4704;50.470;12.072;2023-06-26T11:41:59;7.78;;;7.00;;
9330;SDS011;4704;50.470;12.072;2023-06-26T11:44:28;7.88;;;7.18;;
9330;SDS011;4704;50.470;12.072;2023-06-26T11:46:56;7.15;;;6.53;;
9330;SDS011;4704;50.470;12.072;2023-06-26T11:49:24;7.45;;;6.75;;
9330;SDS011;4704;50.470;12.072;2023-06-26T11:51:52;7.22;;;6.53;;
9330;SDS011;4704;50.470;12.072;2023-06-26T11:54:24;7.90;;;7.07;;
9330;SDS011;4704;50.470;12.072;2023-06-26T11:56:57;7.30;;;6.70;;
9330;SDS011;4704;50.470;12.072;2023-06-26T11:59:24;7.95;;;6.82;;
9330;SDS011;4704;50.470;12.072;2023-06-26T12:01:58;7.22;;;6.63;;
9330;SDS011;4704;50.470;12.072;2023-06-26T12:04:26;7.88;;;7.20;;
9330;SDS011;4704;50.470;12.072;2023-06-26T12:06:54;7.55;;;6.90;;
9330;SDS011;4704;50.470;12.072;2023-06-26T12:09:23;7.28;;;6.65;;
9330;SDS011;4704;50.470;12.072;2023-06-26T12:11:51;7.03;;;6.43;;
9330;SDS011;4704;50.470;12.072;2023-06-26T12:14:21;7.35;;;6.75;;
9330;SDS011;4704;50.470;12.072;2023-06-26T12:16:50;7.18;;;6.57;;
9330;SDS011;4704;50.470;12.072;2023-06-26T12:19:17;6.75;;;6.25;;
9330;SDS011;4704;50.470;12.072;2023-06-26T12:21:50;7.20;;;6.60;;
9330;SDS011;4704;50.470;12.072;2023-06-26T12:24:19;7.32;;;6.72;;
9330;SDS011;4704;50.470;12.072;2023-06-26T12:26:48;7.32;;;6.72;;
9330;SDS011;4704;50.470;12.072;2023-06-26T12:29:17;7.22;;;6.53;;
9330;SDS011;4704;50.470;12.072;2023-06-26T12:31:46;7.22;;;6.63;;
9330;SDS011;4704;50.470;12.072;2023-06-26T12:34:17;7.25;;;6.65;;
9330;SDS011;4704;50.470;12.072;2023-06-26T12:36:45;7.20;;;6.60;;
9330;SDS011;4704;50.470;12.072;2023-06-26T12:39:15;7.13;;;6.60;;
9330;SDS011;4704;50.470;12.072;2023-06-26T12:41:46;6.90;;;6.32;;
9330;SDS011;4704;50.470;12.072;2023-06-26T12:44:17;6.95;;;6.25;;
9330;SDS011;4704;50.470;12.072;2023-06-26T12:46:47;6.78;;;6.28;;
9330;SDS011;4704;50.470;12.072;2023-06-26T12:49:15;6.45;;;5.95;;
9330;SDS011;4704;50.470;12.072;2023-06-26T12:51:43;6.82;;;6.22;;
9330;SDS011;4704;50.470;12.072;2023-06-26T12:54:10;6.72;;;6.22;;
9330;SDS011;4704;50.470;12.072;2023-06-26T12:56:37;7.00;;;6.50;;
9330;SDS011;4704;50.470;12.072;2023-06-26T12:59:05;7.20;;;6.60;;
9330;SDS011;4704;50.470;12.072;2023-06-26T13:01:32;6.93;;;6.32;;
9330;SDS011;4704;50.470;12.072;2023-06-26T13:04:01;7.00;;;6.40;;
9330;SDS011;4704;50.470;12.072;2023-06-26T13:06:29;7.13;;;6.53;;
9330;SDS011;4704;50.470;12.072;2023-06-26T13:08:57;6.93;;;6.38;;
9330;SDS011;4704;50.470;12.072;2023-06-26T13:11:24;6.57;;;6.07;;
9330;SDS011;4704;50.470;12.072;2023-06-26T13:13:52;6.43;;;5.93;;
9330;SDS011;4704;50.470;12.072;2023-06-26T13:16:19;6.03;;;5.60;;
9330;SDS011;4704;50.470;12.072;2023-06-26T13:18:47;6.20;;;5.60;;
9330;SDS011;4704;50.470;12.072;2023-06-26T13:21:16;6.75;;;6.15;;
9330;SDS011;4704;50.470;12.072;2023-06-26T13:23:44;6.40;;;5.90;;
9330;SDS011;4704;50.470;12.072;2023-06-26T13:26:11;7.10;;;6.50;;
9330;SDS011;4704;50.470;12.072;2023-06-26T13:28:39;6.80;;;6.10;;
9330;SDS011;4704;50.470;12.072;2023-06-26T13:31:06;6.93;;;6.38;;
9330;SDS011;4704;50.470;12.072;2023-06-26T13:33:34;6.55;;;5.97;;
9330;SDS011;4704;50.470;12.072;2023-06-26T13:36:01;7.13;;;6.55;;
9330;SDS011;4704;50.470;12.072;2023-06-26T13:38:32;7.18;;;6.57;;
9330;SDS011;4704;50.470;12.072;2023-06-26T13:41:00;7.25;;;6.65;;
9330;SDS011;4704;50.470;12.072;2023-06-26T13:43:28;7.05;;;6.45;;
9330;SDS011;4704;50.470;12.072;2023-06-26T13:45:56;7.20;;;6.60;;
9330;SDS011;4704;50.470;12.072;2023-06-26T13:48:23;7.13;;;6.53;;
9330;SDS011;4704;50.470;12.072;2023-06-26T13:50:51;7.32;;;6.72;;
9330;SDS011;4704;50.470;12.072;2023-06-26T13:53:18;7.80;;;7.20;;
9330;SDS011;4704;50.470;12.072;2023-06-26T13:55:47;7.32;;;6.72;;
9330;SDS011;4704;50.470;12.072;2023-06-26T13:58:15;7.45;;;6.75;;
9330;SDS011;4704;50.470;12.072;2023-06-26T14:00:42;7.80;;;7.10;;
9330;SDS011;4704;50.470;12.072;2023-06-26T14:03:10;7.75;;;7.15;;
9330;SDS011;4704;50.470;12.072;2023-06-26T14:05:38;8.00;;;7.40;;
9330;SDS011;4704;50.470;12.072;2023-06-26T14:08:06;7.72;;;7.13;;
9330;SDS011;4704;50.470;12.072;2023-06-26T14:10:34;8.43;;;7.65;;
9330;SDS011;4704;50.470;12.072;2023-06-26T14:13:03;7.70;;;7.10;;
9330;SDS011;4704;50.470;12.072;2023-06-26T14:15:31;7.93;;;7.32;;
9330;SDS011;4704;50.470;12.072;2023-06-26T14:17:58;8.20;;;7.53;;
9330;SDS011;4704;50.470;12.072;2023-06-26T14:20:28;7.82;;;7.22;;
9330;SDS011;4704;50.470;12.072;2023-06-26T14:22:57;8.27;;;7.57;;
9330;SDS011;4704;50.470;12.072;2023-06-26T14:25:25;8.07;;;7.38;;
9330;SDS011;4704;50.470;12.072;2023-06-26T14:27:53;8.18;;;7.57;;
9330;SDS011;4704;50.470;12.072;2023-06-26T14:30:22;8.18;;;7.57;;
9330;SDS011;4704;50.470;12.072;2023-06-26T14:32:49;8.15;;;7.55;;
9330;SDS011;4704;50.470;12.072;2023-06-26T14:35:17;8.00;;;7.30;;
9330;SDS011;4704;50.470;12.072;2023-06-26T14:37:44;8.10;;;7.50;;
9330;SDS011;4704;50.470;12.072;2023-06-26T14:40:12;7.70;;;7.10;;
9330;SDS011;4704;50.470;12.072;2023-06-26T14:42:40;8.35;;;7.70;;
9330;SDS011;4704;50.470;12.072;2023-06-26T14:45:08;7.53;;;6.93;;
9330;SDS011;4704;50.470;12.072;2023-06-26T14:47:37;7.70;;;7.10;;
9330;SDS011;4704;50.470;12.072;2023-06-26T14:50:05;8.10;;;7.30;;
9330;SDS011;4704;50.470;12.072;2023-06-26T14:52:34;8.55;;;7.85;;
9330;SDS011;4704;50.470;12.072;2023-06-26T14:55:01;7.55;;;6.95;;
9330;SDS011;4704;50.470;12.072;2023-06-26T14:57:28;7.78;;;7.18;;
9330;SDS011;4704;50.470;12.072;2023-06-26T14:59:56;7.70;;;7.10;;
9330;SDS011;4704;50.470;12.072;2023-06-26T15:02:24;8.02;;;7.43;;
9330;SDS011;4704;50.470;12.072;2023-06-26T15:04:53;7.78;;;7.18;;
9330;SDS011;4704;50.470;12.072;2023-06-26T15:07:21;8.25;;;7.55;;